createdAt,value
2019-03-31T00:00:01.251Z,9.25
2019-03-31T00:02:30.759Z,10.25
2019-03-31T00:04:59.812Z,10.35
2019-03-31T00:07:28.846Z,10.05
2019-03-31T00:09:58.177Z,11.93
2019-03-31T00:12:27.189Z,10.38
2019-03-31T00:14:56.173Z,10.28
2019-03-31T00:17:25.294Z,9.58
2019-03-31T00:19:54.299Z,11.38
2019-03-31T00:22:23.309Z,9.98
2019-03-31T00:24:53.575Z,8.25
2019-03-31T00:27:23.087Z,10.75
2019-03-31T00:29:53.147Z,12.43
2019-03-31T00:32:22.313Z,10.80
2019-03-31T00:34:51.257Z,12.40
2019-03-31T00:37:20.261Z,14.33
2019-03-31T00:39:49.397Z,12.03
2019-03-31T00:42:18.702Z,11.78
2019-03-31T00:44:47.779Z,8.88
2019-03-31T00:47:16.849Z,10.45
2019-03-31T00:49:45.804Z,10.00
2019-03-31T00:52:14.973Z,9.95
2019-03-31T00:54:44.480Z,12.25
2019-03-31T00:57:13.567Z,10.68
2019-03-31T00:59:42.709Z,10.58
2019-03-31T01:02:15.957Z,12.23
2019-03-31T01:04:45.312Z,11.20
2019-03-31T01:07:15.287Z,10.55
2019-03-31T01:09:44.962Z,10.38
2019-03-31T01:12:14.274Z,10.93
2019-03-31T01:14:44.429Z,10.15
2019-03-31T01:17:14.798Z,10.32
2019-03-31T01:19:44.533Z,10.32
2019-03-31T01:22:13.496Z,12.37
2019-03-31T01:24:42.651Z,9.95
2019-03-31T01:27:13.371Z,11.35
2019-03-31T01:29:42.613Z,12.80
2019-03-31T01:32:11.898Z,10.05
2019-03-31T01:34:41.080Z,10.70
2019-03-31T01:37:10.824Z,12.05
2019-03-31T01:39:40.179Z,10.20
2019-03-31T01:42:09.241Z,12.13
2019-03-31T01:44:38.481Z,11.25
2019-03-31T01:47:07.636Z,12.23
2019-03-31T01:49:37.013Z,11.45
2019-03-31T01:52:06.170Z,11.35
2019-03-31T01:54:35.123Z,11.68
2019-03-31T01:57:04.187Z,10.63
2019-03-31T01:59:33.223Z,14.33
2019-03-31T02:02:04.308Z,10.40
2019-03-31T02:04:33.248Z,12.35
2019-03-31T02:07:02.460Z,11.68
2019-03-31T02:09:31.439Z,11.00
2019-03-31T02:12:00.526Z,12.15
2019-03-31T02:14:29.579Z,12.98
2019-03-31T02:16:58.693Z,11.48
2019-03-31T02:19:27.872Z,13.08
2019-03-31T02:21:56.930Z,11.68
2019-03-31T02:24:25.973Z,14.45
2019-03-31T02:26:55.032Z,11.90
2019-03-31T02:29:24.014Z,13.85
2019-03-31T02:31:53.118Z,12.55
2019-03-31T02:34:22.233Z,9.85
2019-03-31T02:36:51.461Z,11.12
2019-03-31T02:39:20.667Z,10.78
2019-03-31T02:41:49.726Z,10.13
2019-03-31T02:44:18.881Z,12.82
2019-03-31T02:46:47.960Z,10.75
2019-03-31T02:49:17.086Z,10.95
2019-03-31T02:51:46.213Z,9.83
2019-03-31T02:54:15.359Z,11.65
2019-03-31T02:56:45.255Z,11.78
2019-03-31T02:59:15.844Z,12.93
2019-03-31T03:01:46.774Z,10.63
2019-03-31T03:04:18.530Z,13.20
2019-03-31T03:06:49.939Z,11.10
2019-03-31T03:09:20.662Z,10.58
2019-03-31T03:11:51.020Z,12.13
2019-03-31T03:14:22.084Z,12.35
2019-03-31T03:16:51.467Z,11.15
2019-03-31T03:19:20.725Z,13.40
2019-03-31T03:21:50.034Z,12.23
2019-03-31T03:24:19.106Z,12.43
2019-03-31T03:26:48.285Z,11.18
2019-03-31T03:29:17.259Z,13.58
2019-03-31T03:31:46.261Z,12.88
2019-03-31T03:34:15.299Z,12.47
2019-03-31T03:36:44.470Z,12.15
2019-03-31T03:39:13.657Z,15.00
2019-03-31T03:41:43.495Z,12.30
2019-03-31T03:44:12.781Z,14.47
2019-03-31T03:46:41.753Z,12.23
2019-03-31T03:49:10.993Z,12.00
2019-03-31T03:51:40.133Z,12.55
2019-03-31T03:54:09.093Z,14.55
2019-03-31T03:56:38.198Z,12.70
2019-03-31T03:59:07.155Z,11.40
2019-03-31T04:01:36.261Z,10.80
2019-03-31T04:04:05.366Z,13.88
2019-03-31T04:06:34.414Z,12.50
2019-03-31T04:09:05.905Z,12.43
2019-03-31T04:11:34.967Z,13.13
2019-03-31T04:14:04.363Z,22.82
2019-03-31T04:16:33.432Z,14.47
2019-03-31T04:19:02.863Z,13.22
2019-03-31T04:21:31.932Z,15.15
2019-03-31T04:24:01.081Z,17.40
2019-03-31T04:26:30.116Z,15.40
2019-03-31T04:28:59.249Z,13.83
2019-03-31T04:31:28.305Z,15.18
2019-03-31T04:33:57.415Z,14.68
2019-03-31T04:36:26.654Z,14.78
2019-03-31T04:38:59.908Z,15.63
2019-03-31T04:41:26.514Z,17.17
2019-03-31T04:43:55.497Z,16.05
2019-03-31T04:46:24.620Z,15.32
2019-03-31T04:48:53.831Z,14.10
2019-03-31T04:51:23.119Z,15.95
2019-03-31T04:53:52.409Z,15.18
2019-03-31T04:56:21.470Z,14.43
2019-03-31T04:58:50.808Z,14.00
2019-03-31T05:01:19.828Z,15.08
2019-03-31T05:04:03.429Z,14.80
2019-03-31T05:06:19.597Z,16.87
2019-03-31T05:08:48.892Z,16.73
2019-03-31T05:11:17.906Z,13.25
2019-03-31T05:13:47.115Z,16.23
2019-03-31T05:16:16.290Z,17.50
2019-03-31T05:18:45.436Z,15.72
2019-03-31T05:21:14.787Z,13.58
2019-03-31T05:23:43.943Z,13.35
2019-03-31T05:26:12.969Z,16.77
2019-03-31T05:28:44.171Z,15.03
2019-03-31T05:31:12.691Z,14.80
2019-03-31T05:33:41.745Z,15.03
2019-03-31T05:36:11.015Z,16.85
2019-03-31T05:38:40.271Z,13.55
2019-03-31T05:41:09.383Z,16.93
2019-03-31T05:43:38.350Z,18.67
2019-03-31T05:46:07.417Z,17.17
2019-03-31T05:48:36.752Z,15.30
2019-03-31T05:51:05.861Z,16.37
2019-03-31T05:53:34.825Z,14.63
2019-03-31T05:56:03.958Z,17.70
2019-03-31T05:58:33.002Z,16.82
2019-03-31T06:01:02.203Z,17.32
2019-03-31T06:03:31.385Z,22.75
2019-03-31T06:06:00.565Z,21.57
2019-03-31T06:08:29.515Z,19.70
2019-03-31T06:10:58.886Z,19.75
2019-03-31T06:13:27.846Z,18.00
2019-03-31T06:15:56.824Z,19.00
2019-03-31T06:18:25.841Z,16.85
2019-03-31T06:20:54.966Z,16.57
2019-03-31T06:23:24.044Z,16.67
2019-03-31T06:25:53.155Z,20.05
2019-03-31T06:28:22.420Z,17.85
2019-03-31T06:30:52.056Z,16.65
2019-03-31T06:33:21.237Z,19.20
2019-03-31T06:35:50.525Z,20.05
2019-03-31T06:38:19.653Z,20.10
2019-03-31T06:40:56.283Z,21.27
2019-03-31T06:43:25.239Z,15.90
2019-03-31T06:45:54.309Z,15.93
2019-03-31T06:48:23.325Z,16.35
2019-03-31T06:50:52.297Z,17.15
2019-03-31T06:53:21.506Z,16.67
2019-03-31T06:55:50.659Z,18.17
2019-03-31T06:58:19.753Z,15.45
2019-03-31T07:00:48.722Z,13.90
2019-03-31T07:03:17.774Z,16.55
2019-03-31T07:05:46.806Z,15.13
2019-03-31T07:08:15.802Z,15.65
2019-03-31T07:10:45.046Z,14.35
2019-03-31T07:13:14.261Z,16.73
2019-03-31T07:15:43.356Z,15.65
2019-03-31T07:18:15.823Z,17.67
2019-03-31T07:20:43.306Z,16.97
2019-03-31T07:23:12.489Z,21.40
2019-03-31T07:25:41.713Z,16.23
2019-03-31T07:28:10.967Z,18.67
2019-03-31T07:30:40.100Z,15.85
2019-03-31T07:33:09.203Z,17.07
2019-03-31T07:35:39.047Z,16.23
2019-03-31T07:38:08.440Z,16.40
2019-03-31T07:40:37.639Z,15.78
2019-03-31T07:43:07.229Z,16.48
2019-03-31T07:45:37.505Z,15.68
2019-03-31T07:48:08.131Z,16.67
2019-03-31T07:50:37.200Z,16.73
2019-03-31T07:53:06.332Z,15.75
2019-03-31T07:55:35.323Z,16.73
2019-03-31T07:58:04.497Z,16.15
2019-03-31T08:00:33.635Z,18.80
2019-03-31T08:03:02.819Z,17.48
2019-03-31T08:05:33.417Z,16.77
2019-03-31T08:08:02.519Z,16.27
2019-03-31T08:10:31.511Z,16.75
2019-03-31T08:13:00.500Z,15.63
2019-03-31T08:15:29.731Z,17.85
2019-03-31T08:17:58.944Z,16.55
2019-03-31T08:20:27.932Z,17.02
2019-03-31T08:22:57.344Z,18.67
2019-03-31T08:25:26.646Z,19.32
2019-03-31T08:27:55.935Z,17.45
2019-03-31T08:30:25.226Z,15.75
2019-03-31T08:32:54.198Z,16.73
2019-03-31T08:35:23.216Z,18.05
2019-03-31T08:37:52.228Z,17.95
2019-03-31T08:40:21.362Z,19.65
2019-03-31T08:42:50.489Z,18.05
2019-03-31T08:45:19.612Z,17.23
2019-03-31T08:47:49.225Z,17.95
2019-03-31T08:50:18.298Z,21.95
2019-03-31T08:52:47.350Z,20.32
2019-03-31T08:55:16.402Z,18.92
2019-03-31T08:57:45.601Z,21.33
2019-03-31T09:00:17.009Z,20.25
2019-03-31T09:02:46.171Z,18.82
2019-03-31T09:05:15.690Z,20.05
2019-03-31T09:07:44.685Z,19.30
2019-03-31T09:10:14.500Z,21.48
2019-03-31T09:12:43.543Z,18.98
2019-03-31T09:15:13.410Z,22.93
2019-03-31T09:17:42.587Z,22.30
2019-03-31T09:20:12.223Z,17.23
2019-03-31T09:22:41.352Z,20.90
2019-03-31T09:25:10.731Z,22.32
2019-03-31T09:27:42.843Z,19.00
2019-03-31T09:30:12.907Z,21.30
2019-03-31T09:32:42.104Z,21.07
2019-03-31T09:35:11.781Z,20.55
2019-03-31T09:37:40.958Z,17.52
2019-03-31T09:40:12.996Z,20.00
2019-03-31T09:42:42.169Z,18.27
2019-03-31T09:45:11.669Z,20.72
2019-03-31T09:47:40.926Z,15.98
2019-03-31T09:50:12.333Z,17.73
2019-03-31T09:52:41.474Z,17.10
2019-03-31T09:55:12.163Z,20.92
2019-03-31T09:57:41.301Z,18.07
2019-03-31T10:00:16.388Z,18.50
2019-03-31T10:02:46.084Z,18.23
2019-03-31T10:05:15.634Z,19.87
2019-03-31T10:07:46.417Z,19.80
2019-03-31T10:10:29.819Z,20.57
2019-03-31T10:12:59.087Z,19.12
2019-03-31T10:15:28.367Z,18.85
2019-03-31T10:17:57.426Z,17.40
2019-03-31T10:20:26.789Z,17.40
2019-03-31T10:22:56.145Z,18.25
2019-03-31T10:25:25.283Z,19.98
2019-03-31T10:27:54.590Z,18.32
2019-03-31T10:30:31.728Z,20.62
2019-03-31T10:33:01.101Z,17.67
2019-03-31T10:35:30.542Z,19.65
2019-03-31T10:37:59.618Z,21.48
2019-03-31T10:40:28.656Z,19.48
2019-03-31T10:42:58.039Z,18.92
2019-03-31T10:45:27.300Z,20.12
2019-03-31T10:47:56.614Z,19.73
2019-03-31T10:50:25.732Z,17.17
2019-03-31T10:52:54.837Z,20.52
2019-03-31T10:55:24.091Z,18.70
2019-03-31T10:57:53.137Z,17.42
2019-03-31T11:00:34.818Z,16.93
2019-03-31T11:03:05.039Z,19.00
2019-03-31T11:05:34.251Z,22.30
2019-03-31T11:08:03.303Z,19.15
2019-03-31T11:10:32.720Z,19.27
2019-03-31T11:13:01.880Z,19.62
2019-03-31T11:15:31.116Z,19.25
2019-03-31T11:18:00.402Z,20.90
2019-03-31T11:20:29.553Z,20.27
2019-03-31T11:23:00.172Z,21.75
2019-03-31T11:25:29.654Z,20.80
2019-03-31T11:27:58.797Z,19.65
2019-03-31T11:30:27.914Z,24.47
2019-03-31T11:32:56.957Z,20.23
2019-03-31T11:35:26.126Z,22.58
2019-03-31T11:37:55.193Z,21.10
2019-03-31T11:40:24.228Z,19.98
2019-03-31T11:42:53.341Z,20.23
2019-03-31T11:45:22.374Z,20.05
2019-03-31T11:47:51.469Z,19.45
2019-03-31T11:50:20.718Z,22.40
2019-03-31T11:52:49.846Z,21.52
2019-03-31T11:55:19.083Z,21.82
2019-03-31T11:57:48.326Z,20.85
2019-03-31T12:00:21.877Z,21.60
2019-03-31T12:02:51.219Z,22.02
2019-03-31T12:05:20.587Z,19.62
2019-03-31T12:07:49.627Z,19.85
2019-03-31T12:10:19.962Z,20.35
2019-03-31T12:12:49.430Z,20.77
2019-03-31T12:15:18.445Z,19.32
2019-03-31T12:17:47.526Z,21.87
2019-03-31T12:20:16.930Z,23.67
2019-03-31T12:22:45.924Z,20.97
2019-03-31T12:25:15.167Z,19.35
2019-03-31T12:27:44.611Z,17.87
2019-03-31T12:30:15.491Z,18.02
2019-03-31T12:32:44.759Z,18.95
2019-03-31T12:35:13.972Z,21.37
2019-03-31T12:37:43.573Z,23.42
2019-03-31T12:40:15.789Z,21.65
2019-03-31T12:42:44.992Z,18.60
2019-03-31T12:45:14.259Z,17.62
2019-03-31T12:47:43.954Z,17.92
2019-03-31T12:50:13.173Z,18.73
2019-03-31T12:52:47.458Z,14.28
2019-03-31T12:55:13.397Z,19.50
2019-03-31T12:57:42.407Z,16.57
2019-03-31T13:00:11.956Z,18.50
2019-03-31T13:02:41.024Z,19.10
2019-03-31T13:05:10.486Z,17.57
2019-03-31T13:07:39.461Z,16.20
2019-03-31T13:10:08.927Z,18.02
2019-03-31T13:12:37.963Z,17.87
2019-03-31T13:15:07.328Z,14.83
2019-03-31T13:17:36.303Z,17.45
2019-03-31T13:20:08.361Z,14.40
2019-03-31T13:22:37.471Z,14.85
2019-03-31T13:25:07.581Z,16.15
2019-03-31T13:27:36.766Z,15.60
2019-03-31T13:30:08.201Z,15.15
2019-03-31T13:32:37.229Z,14.93
2019-03-31T13:35:08.599Z,16.07
2019-03-31T13:37:37.894Z,14.63
2019-03-31T13:40:08.106Z,14.38
2019-03-31T13:42:37.140Z,15.60
2019-03-31T13:45:07.483Z,13.78
2019-03-31T13:47:36.529Z,12.37
2019-03-31T13:50:07.724Z,15.32
2019-03-31T13:52:36.803Z,15.13
2019-03-31T13:55:07.410Z,17.32
2019-03-31T13:57:37.977Z,13.18
2019-03-31T14:00:09.314Z,13.93
2019-03-31T14:02:39.230Z,10.25
2019-03-31T14:05:08.632Z,12.73
2019-03-31T14:07:37.711Z,14.05
2019-03-31T14:10:07.632Z,17.75
2019-03-31T14:12:37.063Z,12.45
2019-03-31T14:15:19.115Z,13.38
2019-03-31T14:17:38.983Z,13.00
2019-03-31T14:20:08.177Z,13.48
2019-03-31T14:22:37.260Z,13.10
2019-03-31T14:25:07.311Z,11.28
2019-03-31T14:27:36.412Z,10.50
2019-03-31T14:30:08.653Z,10.15
2019-03-31T14:32:37.688Z,9.63
2019-03-31T14:35:07.256Z,12.35
2019-03-31T14:37:36.461Z,11.63
2019-03-31T14:40:05.891Z,10.15
2019-03-31T14:42:35.195Z,10.63
2019-03-31T14:45:06.066Z,10.55
2019-03-31T14:47:35.516Z,8.25
2019-03-31T14:50:05.744Z,10.18
2019-03-31T14:52:34.796Z,8.93
2019-03-31T14:55:04.632Z,10.90
2019-03-31T14:57:33.613Z,7.90
2019-03-31T15:00:14.072Z,9.55
2019-03-31T15:02:33.595Z,9.78
2019-03-31T15:05:03.003Z,9.65
2019-03-31T15:07:32.251Z,9.50
2019-03-31T15:10:01.342Z,8.55
2019-03-31T15:12:30.697Z,8.73
2019-03-31T15:14:59.850Z,8.10
2019-03-31T15:17:28.958Z,9.63
2019-03-31T15:19:58.245Z,9.28
2019-03-31T15:22:27.605Z,9.20
2019-03-31T15:24:56.731Z,8.50
2019-03-31T15:27:25.903Z,8.18
2019-03-31T15:29:55.088Z,8.15
2019-03-31T15:32:24.344Z,9.18
2019-03-31T15:34:53.493Z,8.43
2019-03-31T15:37:22.736Z,9.40
2019-03-31T15:39:52.085Z,11.70
2019-03-31T15:42:21.255Z,8.15
2019-03-31T15:44:50.312Z,9.05
2019-03-31T15:47:19.653Z,9.08
2019-03-31T15:49:48.840Z,7.97
2019-03-31T15:52:17.969Z,10.35
2019-03-31T15:54:47.218Z,8.65
2019-03-31T15:57:16.249Z,8.98
2019-03-31T15:59:53.507Z,8.48
2019-03-31T16:02:24.442Z,8.93
2019-03-31T16:04:53.567Z,9.33
2019-03-31T16:07:22.863Z,9.03
2019-03-31T16:09:51.980Z,8.98
2019-03-31T16:12:21.448Z,7.33
2019-03-31T16:14:50.666Z,8.10
2019-03-31T16:17:19.998Z,8.33
2019-03-31T16:19:49.233Z,7.15
2019-03-31T16:22:18.455Z,9.00
2019-03-31T16:24:49.274Z,8.00
2019-03-31T16:27:18.532Z,7.47
2019-03-31T16:29:47.811Z,6.45
2019-03-31T16:32:17.271Z,8.13
2019-03-31T16:34:46.445Z,7.17
2019-03-31T16:37:15.785Z,7.30
2019-03-31T16:39:45.007Z,10.95
2019-03-31T16:42:14.350Z,7.58
2019-03-31T16:44:57.217Z,7.40
2019-03-31T16:47:14.328Z,8.60
2019-03-31T16:49:43.356Z,8.28
2019-03-31T16:52:12.658Z,7.65
2019-03-31T16:54:41.731Z,7.70
2019-03-31T16:57:10.703Z,7.62
2019-03-31T16:59:39.879Z,7.42
2019-03-31T17:02:08.872Z,7.33
2019-03-31T17:04:37.970Z,6.90
2019-03-31T17:07:07.372Z,7.42
2019-03-31T17:09:40.938Z,8.88
2019-03-31T17:12:07.312Z,7.35
2019-03-31T17:14:36.566Z,8.88
2019-03-31T17:17:05.847Z,7.37
2019-03-31T17:19:35.214Z,7.67
2019-03-31T17:22:04.492Z,7.80
2019-03-31T17:24:33.668Z,8.85
2019-03-31T17:27:03.032Z,6.85
2019-03-31T17:29:32.431Z,9.08
2019-03-31T17:32:01.736Z,7.92
2019-03-31T17:34:30.791Z,7.65
2019-03-31T17:36:59.837Z,7.87
2019-03-31T17:39:29.046Z,7.97
2019-03-31T17:41:58.364Z,7.50
2019-03-31T17:44:27.429Z,7.37
2019-03-31T17:46:56.851Z,10.15
2019-03-31T17:49:26.184Z,7.50
2019-03-31T17:51:55.827Z,8.73
2019-03-31T17:54:25.299Z,7.35
2019-03-31T17:56:54.418Z,9.28
2019-03-31T17:59:23.779Z,8.98
2019-03-31T18:01:53.006Z,7.92
2019-03-31T18:04:23.311Z,10.72
2019-03-31T18:06:52.478Z,9.55
2019-03-31T18:09:21.461Z,9.58
2019-03-31T18:11:50.638Z,7.97
2019-03-31T18:14:19.665Z,8.70
2019-03-31T18:16:48.785Z,9.15
2019-03-31T18:19:17.983Z,9.98
2019-03-31T18:21:47.314Z,7.65
2019-03-31T18:24:16.364Z,9.00
2019-03-31T18:26:45.452Z,9.20
2019-03-31T18:29:14.705Z,11.00
2019-03-31T18:31:44.017Z,7.60
2019-03-31T18:34:13.100Z,9.75
2019-03-31T18:36:42.305Z,12.40
2019-03-31T18:39:11.419Z,8.55
2019-03-31T18:41:40.537Z,10.08
2019-03-31T18:44:09.521Z,8.55
2019-03-31T18:46:38.732Z,9.25
2019-03-31T18:49:07.725Z,8.18
2019-03-31T18:51:36.779Z,10.85
2019-03-31T18:54:10.261Z,10.58
2019-03-31T18:56:43.659Z,10.10
2019-03-31T18:59:33.285Z,10.08
2019-03-31T19:02:13.456Z,7.12
2019-03-31T19:04:44.412Z,9.35
2019-03-31T19:07:31.512Z,9.38
2019-03-31T19:10:24.956Z,11.12
2019-03-31T19:13:00.114Z,8.63
2019-03-31T19:15:47.409Z,12.13
2019-03-31T19:18:20.729Z,10.23
2019-03-31T19:20:54.084Z,12.28
2019-03-31T19:23:31.139Z,9.90
2019-03-31T19:26:11.172Z,11.12
2019-03-31T19:29:00.216Z,12.03
2019-03-31T19:31:31.861Z,10.43
2019-03-31T19:34:02.884Z,12.18
2019-03-31T19:36:39.629Z,10.43
2019-03-31T19:39:14.302Z,11.15
2019-03-31T19:41:45.028Z,12.20
2019-03-31T19:44:34.024Z,10.38
2019-03-31T19:47:05.000Z,11.90
2019-03-31T19:49:35.754Z,10.78
2019-03-31T19:52:06.790Z,11.12
2019-03-31T19:54:54.369Z,10.70
2019-03-31T19:57:31.390Z,10.58
2019-03-31T20:00:08.123Z,12.82
2019-03-31T20:02:39.312Z,12.95
2019-03-31T20:05:26.580Z,12.82
2019-03-31T20:08:05.827Z,13.00
2019-03-31T20:10:36.692Z,14.10
2019-03-31T20:13:24.184Z,14.98
2019-03-31T20:15:57.716Z,12.35
2019-03-31T20:18:44.955Z,13.35
2019-03-31T20:21:31.948Z,14.05
2019-03-31T20:23:57.351Z,12.43
2019-03-31T20:26:28.226Z,13.88
2019-03-31T20:29:05.324Z,14.10
2019-03-31T20:31:39.448Z,15.15
2019-03-31T20:34:10.307Z,14.03
2019-03-31T20:36:57.325Z,13.65
2019-03-31T20:39:30.880Z,15.90
2019-03-31T20:42:01.645Z,14.90
2019-03-31T20:44:31.123Z,12.95
2019-03-31T20:47:00.451Z,13.55
2019-03-31T20:49:29.710Z,13.18
2019-03-31T20:51:58.926Z,14.53
2019-03-31T20:54:28.118Z,17.23
2019-03-31T20:56:57.260Z,18.02
2019-03-31T20:59:26.459Z,16.50
2019-03-31T21:01:55.671Z,15.43
2019-03-31T21:04:24.842Z,13.03
2019-03-31T21:06:54.202Z,14.53
2019-03-31T21:09:23.268Z,14.58
2019-03-31T21:11:52.650Z,14.65
2019-03-31T21:14:21.693Z,15.03
2019-03-31T21:16:50.691Z,14.50
2019-03-31T21:19:19.713Z,13.62
2019-03-31T21:21:49.004Z,14.80
2019-03-31T21:24:18.033Z,14.47
2019-03-31T21:26:47.050Z,13.55
2019-03-31T21:29:16.050Z,12.50
2019-03-31T21:31:45.340Z,14.95
2019-03-31T21:34:14.676Z,14.47
2019-03-31T21:36:43.724Z,13.65
2019-03-31T21:39:13.139Z,12.25
2019-03-31T21:41:42.186Z,13.60
2019-03-31T21:44:11.599Z,17.25
2019-03-31T21:46:40.683Z,12.43
2019-03-31T21:49:09.866Z,15.08
2019-03-31T21:51:39.139Z,15.78
2019-03-31T21:54:08.230Z,14.05
2019-03-31T21:56:37.561Z,14.58
2019-03-31T21:59:06.619Z,13.45
2019-03-31T22:01:35.742Z,14.45
2019-03-31T22:04:05.301Z,11.63
2019-03-31T22:06:34.494Z,13.60
2019-03-31T22:09:05.232Z,14.35
2019-03-31T22:11:34.266Z,13.18
2019-03-31T22:14:03.534Z,14.20
2019-03-31T22:16:32.488Z,12.13
2019-03-31T22:19:01.742Z,13.13
2019-03-31T22:21:30.736Z,16.17
2019-03-31T22:23:59.888Z,13.80
2019-03-31T22:26:28.990Z,13.18
2019-03-31T22:28:58.043Z,14.95
2019-03-31T22:31:27.294Z,16.12
2019-03-31T22:33:56.513Z,14.05
2019-03-31T22:36:25.702Z,14.83
2019-03-31T22:38:54.937Z,12.75
2019-03-31T22:41:24.070Z,15.18
2019-03-31T22:43:53.704Z,16.15
2019-03-31T22:46:23.075Z,14.50
2019-03-31T22:48:52.260Z,12.40
2019-03-31T22:51:21.465Z,14.07
2019-03-31T22:53:50.418Z,13.58
2019-03-31T22:56:19.475Z,13.90
2019-03-31T22:58:48.764Z,14.78
2019-03-31T23:01:18.015Z,14.65
2019-03-31T23:03:47.174Z,14.15
2019-03-31T23:06:16.181Z,14.23
2019-03-31T23:08:45.323Z,14.45
2019-03-31T23:11:14.459Z,16.65
2019-03-31T23:13:43.489Z,13.43
2019-03-31T23:16:12.867Z,12.65
2019-03-31T23:18:41.919Z,12.98
2019-03-31T23:21:11.096Z,13.93
2019-03-31T23:23:40.231Z,12.85
2019-03-31T23:26:09.240Z,15.08
2019-03-31T23:28:39.855Z,12.90
2019-03-31T23:31:09.078Z,14.83
2019-03-31T23:33:38.220Z,14.18
2019-03-31T23:36:07.201Z,13.22
2019-03-31T23:38:36.318Z,14.73
2019-03-31T23:41:05.317Z,16.57
2019-03-31T23:43:34.716Z,17.42
2019-03-31T23:46:03.832Z,13.45
2019-03-31T23:48:32.858Z,14.83
2019-03-31T23:51:02.011Z,14.63
2019-03-31T23:53:30.962Z,14.70
2019-03-31T23:55:59.997Z,13.22
2019-03-31T23:58:29.350Z,13.65
